Flight Track Log - Related Links

Times and Time Zones

All times are in EDT time to prevent confusion due to time zone crossing. See the SWA2955 flight status page for this flight to view local times or setup timezone preferences in your user account.


Time Position Orientation Groundspeed Altitude Reporting Facility
EDT Latitude Longitude Course Direction KTS MPH feet Rate Location/Type
Fri 05:45:21 PM 35.0122 -106.6808 245° Southwest 195 224 7,500  Level Albuquerque Center
Fri 05:46:15 PM 35.0267 -106.7444 286° West 224 258 9,600 2,586 Climbing Albuquerque Center
Fri 05:47:17 PM 35.0481 -106.8342 286° West 256 295 12,500 3,048 Climbing Albuquerque Center
Fri 05:48:19 PM 35.0722 -106.9350 286° West 281 323 15,900 3,145 Climbing Albuquerque Center
Fri 05:49:21 PM 35.0783 -107.0422 274° West 301 346 19,000 2,129 Climbing Albuquerque Center
Fri 05:50:23 PM 35.0747 -107.1631 268° West 348 400 20,300 1,597 Climbing Albuquerque Center
Fri 05:51:25 PM 35.0661 -107.2814 265° West 394 453 22,300 2,274 Climbing Albuquerque Center
Fri 05:52:27 PM 35.0594 -107.4183 267° West 401 461 25,000 2,565 Climbing Albuquerque Center
Fri 05:53:29 PM 35.0519 -107.5828 267° West 405 466 27,600 2,129 Climbing Albuquerque Center
Fri 05:54:31 PM 35.0444 -107.7236 266° West 413 475 29,400 2,177 Climbing Albuquerque Center
Fri 05:55:33 PM 35.0381 -107.8706 267° West 416 479 32,100 2,226 Climbing Albuquerque Center
Fri 05:56:35 PM 35.0314 -108.0003 266° West 406 467 34,000 1,306 Climbing Albuquerque Center
Fri 05:57:37 PM 35.0233 -108.1486 266° West 395 455 34,800 968 Climbing Albuquerque Center
Fri 05:58:39 PM 35.0164 -108.2739 266° West 389 448 36,000 581 Climbing Albuquerque Center
Fri 05:59:41 PM 35.0094 -108.4200 267° West 387 445 36,000  Level Albuquerque Center
Fri 06:00:44 PM 35.0022 -108.5444 266° West 384 442 36,000  Level Albuquerque Center
Fri 06:01:45 PM 34.9947 -108.6917 266° West 386 444 36,000  Level Albuquerque Center
Fri 06:02:47 PM 34.9864 -108.8186 265° West 390 449 36,000  Level Albuquerque Center
Fri 06:03:49 PM 34.9797 -108.9461 266° West 392 451 36,000  Level Albuquerque Center
Fri 06:04:51 PM 34.9711 -109.0953 266° West 393 452 36,000  Level Albuquerque Center
Fri 06:05:53 PM 34.9461 -109.2192 256° West 397 457 36,000  Level Albuquerque Center
Fri 06:06:55 PM 34.8944 -109.3531 245° Southwest 390 449 36,000  Level Albuquerque Center
Fri 06:07:57 PM 34.8511 -109.4694 246° West 393 452 36,000  Level Albuquerque Center
Fri 06:08:59 PM 34.8011 -109.6050 246° West 392 451 36,000  Level Albuquerque Center
Fri 06:10:01 PM 34.7581 -109.7228 246° West 395 455 36,000  Level Albuquerque Center
Fri 06:11:03 PM 34.7069 -109.8597 246° West 397 457 36,000  Level Albuquerque Center
Fri 06:12:05 PM 34.6633 -109.9772 246° West 399 459 36,000  Level Albuquerque Center
Fri 06:13:07 PM 34.6203 -110.0947 246° West 397 457 36,000 -484 Level Albuquerque Center
Fri 06:14:09 PM 34.5725 -110.2369 248° West 404 465 35,000 -1,790 Descending Albuquerque Center
Fri 06:15:11 PM 34.5242 -110.3472 242° Southwest 391 450 32,300 -2,195 Descending Albuquerque Center
Fri 06:16:12 PM 34.4828 -110.4692 248° West 398 458 30,500 -1,854 Descending Albuquerque Center
Fri 06:17:14 PM 34.4389 -110.5881 246° West 390 449 28,500 -2,081 Descending Albuquerque Center
Fri 06:18:16 PM 34.3858 -110.7250 245° Southwest 378 435 26,200 -2,032 Descending Albuquerque Center
Fri 06:19:18 PM 34.3314 -110.8319 238° Southwest 375 432 24,300 -1,887 Descending Albuquerque Center
Fri 06:20:20 PM 34.2583 -110.9206 225° Southwest 371 427 22,300 -1,887 Descending Albuquerque Center
Fri 06:21:22 PM 34.1889 -111.0108 227° Southwest 368 423 20,400 -1,854 Descending Albuquerque Center
Fri 06:22:23 PM 34.1181 -111.1017 227° Southwest 370 426 18,500 -1,951 Descending Albuquerque Center
Fri 06:23:25 PM 34.0492 -111.1883 226° Southwest 362 417 16,400 -1,984 Descending Albuquerque Center
Fri 06:24:27 PM 33.9814 -111.2769 227° Southwest 359 413 14,400 -1,984 Descending Albuquerque Center
Fri 06:25:29 PM 33.9008 -111.3808 227° Southwest 353 406 12,300 -1,597 Descending Albuquerque Center
Fri 06:26:31 PM 33.8356 -111.4544 223° Southwest 322 371 11,100 -1,073 Descending Albuquerque Center
Fri 06:27:32 PM 33.7964 -111.5433 242° Southwest 299 344 10,100 -780 Descending Albuquerque Center
Fri 06:28:34 PM 33.7411 -111.5942 217° Southwest 265 305 9,500 -774 Descending Albuquerque Center
Fri 06:29:36 PM 33.6714 -111.6108 191° South 255 293 8,500 -726 Descending Albuquerque Center
Fri 06:30:38 PM 33.6039 -111.6267 191° South 246 283 8,000 -726 Descending Albuquerque Center
Fri 06:31:40 PM 33.5369 -111.6419 191° South 244 281 7,000 -919 Descending Albuquerque Center
Fri 06:32:42 PM 33.4903 -111.6917 222° Southwest 240 276 6,100 -927 Descending Albuquerque Center
Fri 06:33:43 PM 33.4536 -111.7725 241° Southwest 230 265 5,100 -1,317 Descending Albuquerque Center
Fri 06:34:45 PM 33.4414 -111.8431 258° West 226 260 3,400 -1,306 Descending Albuquerque Center
Fri 06:35:47 PM 33.4406 -111.9131 269° West 204 235 2,400 -871 Descending Albuquerque Center
Fri 06:36:49 PM 33.4417 -111.9586 272° West 146 168 1,600 -629 Descending Albuquerque Center
Fri 06:37:51 PM 33.4489 -112.0092 280° West 147 169 1,100 -484 Descending Albuquerque Center
Fri 06:39:00 PM 33.4333 -112.0000 90° East  Level FlightAware Approximate

Login

Don't have an account? Register now (free) for customized features, flight alerts, and more!